sensor_id;sensor_type;location;lat;lon;timestamp;P1;durP1;ratioP1;P2;durP2;ratioP2
6973;SDS011;3527;52.376;8.990;2023-05-10T00:00:23;14.80;;;10.57;;
6973;SDS011;3527;52.376;8.990;2023-05-10T00:02:50;12.87;;;10.30;;
6973;SDS011;3527;52.376;8.990;2023-05-10T00:05:17;11.77;;;9.80;;
6973;SDS011;3527;52.376;8.990;2023-05-10T00:07:43;11.80;;;9.80;;
6973;SDS011;3527;52.376;8.990;2023-05-10T00:10:11;12.13;;;10.30;;
6973;SDS011;3527;52.376;8.990;2023-05-10T00:12:38;12.80;;;10.30;;
6973;SDS011;3527;52.376;8.990;2023-05-10T00:15:04;11.80;;;10.53;;
6973;SDS011;3527;52.376;8.990;2023-05-10T00:17:31;12.37;;;10.93;;
6973;SDS011;3527;52.376;8.990;2023-05-10T00:19:58;13.87;;;11.50;;
6973;SDS011;3527;52.376;8.990;2023-05-10T00:22:24;13.33;;;11.00;;
6973;SDS011;3527;52.376;8.990;2023-05-10T00:24:51;12.87;;;11.20;;
6973;SDS011;3527;52.376;8.990;2023-05-10T00:27:18;13.17;;;11.57;;
6973;SDS011;3527;52.376;8.990;2023-05-10T00:29:44;15.43;;;11.97;;
6973;SDS011;3527;52.376;8.990;2023-05-10T00:32:11;14.03;;;12.33;;
6973;SDS011;3527;52.376;8.990;2023-05-10T00:34:38;15.53;;;12.23;;
6973;SDS011;3527;52.376;8.990;2023-05-10T00:37:04;13.87;;;11.57;;
6973;SDS011;3527;52.376;8.990;2023-05-10T00:39:31;17.00;;;12.40;;
6973;SDS011;3527;52.376;8.990;2023-05-10T00:41:57;15.03;;;12.57;;
6973;SDS011;3527;52.376;8.990;2023-05-10T00:44:24;17.03;;;13.03;;
6973;SDS011;3527;52.376;8.990;2023-05-10T00:46:50;16.10;;;11.87;;
6973;SDS011;3527;52.376;8.990;2023-05-10T00:49:17;16.50;;;11.67;;
6973;SDS011;3527;52.376;8.990;2023-05-10T00:51:44;13.73;;;11.63;;
6973;SDS011;3527;52.376;8.990;2023-05-10T00:54:11;16.30;;;12.23;;
6973;SDS011;3527;52.376;8.990;2023-05-10T00:56:40;15.33;;;12.83;;
6973;SDS011;3527;52.376;8.990;2023-05-10T00:59:09;15.50;;;12.27;;
6973;SDS011;3527;52.376;8.990;2023-05-10T01:01:36;15.87;;;13.00;;
6973;SDS011;3527;52.376;8.990;2023-05-10T01:04:03;16.47;;;12.13;;
6973;SDS011;3527;52.376;8.990;2023-05-10T01:06:30;16.83;;;12.80;;
6973;SDS011;3527;52.376;8.990;2023-05-10T01:08:57;17.50;;;13.27;;
6973;SDS011;3527;52.376;8.990;2023-05-10T01:11:24;17.63;;;13.47;;
6973;SDS011;3527;52.376;8.990;2023-05-10T01:13:52;18.53;;;13.63;;
6973;SDS011;3527;52.376;8.990;2023-05-10T01:16:21;15.53;;;13.27;;
6973;SDS011;3527;52.376;8.990;2023-05-10T01:18:48;19.17;;;14.23;;
6973;SDS011;3527;52.376;8.990;2023-05-10T01:34:23;16.97;;;13.90;;
6973;SDS011;3527;52.376;8.990;2023-05-10T01:36:55;18.07;;;14.63;;
6973;SDS011;3527;52.376;8.990;2023-05-10T01:39:25;19.73;;;15.47;;
6973;SDS011;3527;52.376;8.990;2023-05-10T01:41:56;19.77;;;14.70;;
6973;SDS011;3527;52.376;8.990;2023-05-10T01:47:11;17.67;;;14.23;;
6973;SDS011;3527;52.376;8.990;2023-05-10T01:49:43;20.50;;;14.83;;
6973;SDS011;3527;52.376;8.990;2023-05-10T01:52:12;18.60;;;14.77;;
6973;SDS011;3527;52.376;8.990;2023-05-10T01:54:41;19.27;;;15.33;;
6973;SDS011;3527;52.376;8.990;2023-05-10T01:57:09;20.07;;;15.70;;
6973;SDS011;3527;52.376;8.990;2023-05-10T01:59:38;17.80;;;14.00;;
6973;SDS011;3527;52.376;8.990;2023-05-10T02:02:07;20.60;;;15.77;;
6973;SDS011;3527;52.376;8.990;2023-05-10T02:04:38;21.43;;;15.50;;
6973;SDS011;3527;52.376;8.990;2023-05-10T02:07:06;19.80;;;15.73;;
6973;SDS011;3527;52.376;8.990;2023-05-10T02:09:33;17.43;;;14.23;;
6973;SDS011;3527;52.376;8.990;2023-05-10T02:12:01;21.00;;;16.63;;
6973;SDS011;3527;52.376;8.990;2023-05-10T02:14:29;19.47;;;15.13;;
6973;SDS011;3527;52.376;8.990;2023-05-10T02:16:57;20.00;;;16.10;;
6973;SDS011;3527;52.376;8.990;2023-05-10T02:19:24;19.63;;;15.87;;
6973;SDS011;3527;52.376;8.990;2023-05-10T02:21:52;19.93;;;14.87;;
6973;SDS011;3527;52.376;8.990;2023-05-10T02:24:19;18.93;;;14.23;;
6973;SDS011;3527;52.376;8.990;2023-05-10T02:26:46;17.87;;;14.40;;
6973;SDS011;3527;52.376;8.990;2023-05-10T02:29:13;19.63;;;15.97;;
6973;SDS011;3527;52.376;8.990;2023-05-10T02:31:40;20.47;;;16.43;;
6973;SDS011;3527;52.376;8.990;2023-05-10T02:34:09;20.33;;;15.50;;
6973;SDS011;3527;52.376;8.990;2023-05-10T02:36:37;19.33;;;15.47;;
6973;SDS011;3527;52.376;8.990;2023-05-10T02:39:04;20.87;;;17.17;;
6973;SDS011;3527;52.376;8.990;2023-05-10T02:41:38;19.03;;;15.83;;
6973;SDS011;3527;52.376;8.990;2023-05-10T02:44:06;20.07;;;16.60;;
6973;SDS011;3527;52.376;8.990;2023-05-10T02:46:34;20.23;;;13.93;;
6973;SDS011;3527;52.376;8.990;2023-05-10T02:49:01;20.33;;;15.57;;
6973;SDS011;3527;52.376;8.990;2023-05-10T02:51:28;15.53;;;13.83;;
6973;SDS011;3527;52.376;8.990;2023-05-10T02:53:58;16.60;;;13.80;;
6973;SDS011;3527;52.376;8.990;2023-05-10T02:56:34;17.10;;;13.90;;
6973;SDS011;3527;52.376;8.990;2023-05-10T02:59:02;17.97;;;14.37;;
6973;SDS011;3527;52.376;8.990;2023-05-10T03:01:28;18.00;;;13.83;;
6973;SDS011;3527;52.376;8.990;2023-05-10T03:03:55;19.60;;;15.87;;
6973;SDS011;3527;52.376;8.990;2023-05-10T03:06:22;18.50;;;13.33;;
6973;SDS011;3527;52.376;8.990;2023-05-10T03:08:49;18.60;;;14.43;;
6973;SDS011;3527;52.376;8.990;2023-05-10T03:13:56;17.90;;;14.00;;
6973;SDS011;3527;52.376;8.990;2023-05-10T03:16:27;16.60;;;14.33;;
6973;SDS011;3527;52.376;8.990;2023-05-10T03:19:06;17.47;;;14.67;;
6973;SDS011;3527;52.376;8.990;2023-05-10T03:21:33;20.20;;;15.37;;
6973;SDS011;3527;52.376;8.990;2023-05-10T03:24:05;18.30;;;15.47;;
6973;SDS011;3527;52.376;8.990;2023-05-10T03:26:32;21.77;;;16.07;;
6973;SDS011;3527;52.376;8.990;2023-05-10T03:28:59;18.90;;;14.60;;
6973;SDS011;3527;52.376;8.990;2023-05-10T03:31:26;18.37;;;14.07;;
6973;SDS011;3527;52.376;8.990;2023-05-10T03:33:53;20.67;;;14.60;;
6973;SDS011;3527;52.376;8.990;2023-05-10T03:36:20;21.67;;;14.73;;
6973;SDS011;3527;52.376;8.990;2023-05-10T03:38:46;21.70;;;14.70;;
6973;SDS011;3527;52.376;8.990;2023-05-10T03:41:13;20.57;;;15.33;;
6973;SDS011;3527;52.376;8.990;2023-05-10T03:43:40;20.40;;;14.63;;
6973;SDS011;3527;52.376;8.990;2023-05-10T03:46:07;21.90;;;14.90;;
6973;SDS011;3527;52.376;8.990;2023-05-10T03:48:34;20.33;;;15.77;;
6973;SDS011;3527;52.376;8.990;2023-05-10T03:51:01;18.00;;;12.80;;
6973;SDS011;3527;52.376;8.990;2023-05-10T03:53:29;15.90;;;10.43;;
6973;SDS011;3527;52.376;8.990;2023-05-10T03:55:56;13.63;;;9.30;;
6973;SDS011;3527;52.376;8.990;2023-05-10T03:58:23;12.13;;;8.33;;
6973;SDS011;3527;52.376;8.990;2023-05-10T04:00:50;12.60;;;8.93;;
6973;SDS011;3527;52.376;8.990;2023-05-10T04:03:17;11.50;;;8.10;;
6973;SDS011;3527;52.376;8.990;2023-05-10T04:05:44;9.50;;;6.83;;
6973;SDS011;3527;52.376;8.990;2023-05-10T04:08:12;10.73;;;7.80;;
6973;SDS011;3527;52.376;8.990;2023-05-10T04:10:38;10.83;;;7.40;;
6973;SDS011;3527;52.376;8.990;2023-05-10T04:13:06;10.53;;;6.97;;
6973;SDS011;3527;52.376;8.990;2023-05-10T04:15:52;14.00;;;8.03;;
6973;SDS011;3527;52.376;8.990;2023-05-10T04:18:39;11.60;;;8.77;;
6973;SDS011;3527;52.376;8.990;2023-05-10T04:21:26;13.00;;;9.07;;
6973;SDS011;3527;52.376;8.990;2023-05-10T04:23:55;13.27;;;9.07;;
6973;SDS011;3527;52.376;8.990;2023-05-10T04:26:33;11.70;;;8.70;;
6973;SDS011;3527;52.376;8.990;2023-05-10T04:29:19;10.80;;;7.70;;
6973;SDS011;3527;52.376;8.990;2023-05-10T04:31:57;13.30;;;7.93;;
6973;SDS011;3527;52.376;8.990;2023-05-10T04:34:44;11.90;;;7.40;;
6973;SDS011;3527;52.376;8.990;2023-05-10T04:37:30;10.17;;;7.63;;
6973;SDS011;3527;52.376;8.990;2023-05-10T04:40:17;11.63;;;8.03;;
6973;SDS011;3527;52.376;8.990;2023-05-10T04:42:59;10.23;;;7.67;;
6973;SDS011;3527;52.376;8.990;2023-05-10T04:45:27;10.03;;;7.57;;
6973;SDS011;3527;52.376;8.990;2023-05-10T04:47:54;10.30;;;8.03;;
6973;SDS011;3527;52.376;8.990;2023-05-10T04:50:22;10.67;;;8.00;;
6973;SDS011;3527;52.376;8.990;2023-05-10T04:52:48;12.17;;;8.60;;
6973;SDS011;3527;52.376;8.990;2023-05-10T04:55:15;11.70;;;9.37;;
6973;SDS011;3527;52.376;8.990;2023-05-10T04:57:42;12.03;;;9.37;;
6973;SDS011;3527;52.376;8.990;2023-05-10T05:00:09;12.73;;;8.93;;
6973;SDS011;3527;52.376;8.990;2023-05-10T05:02:36;11.40;;;8.53;;
6973;SDS011;3527;52.376;8.990;2023-05-10T05:05:02;11.50;;;8.87;;
6973;SDS011;3527;52.376;8.990;2023-05-10T05:07:29;11.10;;;9.10;;
6973;SDS011;3527;52.376;8.990;2023-05-10T05:09:56;12.73;;;9.33;;
6973;SDS011;3527;52.376;8.990;2023-05-10T05:12:23;12.80;;;9.03;;
6973;SDS011;3527;52.376;8.990;2023-05-10T05:14:50;10.30;;;8.37;;
6973;SDS011;3527;52.376;8.990;2023-05-10T05:17:16;12.37;;;9.50;;
6973;SDS011;3527;52.376;8.990;2023-05-10T05:19:43;13.00;;;9.83;;
6973;SDS011;3527;52.376;8.990;2023-05-10T05:22:09;13.37;;;9.90;;
6973;SDS011;3527;52.376;8.990;2023-05-10T05:24:36;14.07;;;9.87;;
6973;SDS011;3527;52.376;8.990;2023-05-10T05:27:05;11.00;;;8.73;;
6973;SDS011;3527;52.376;8.990;2023-05-10T05:29:32;11.07;;;8.57;;
6973;SDS011;3527;52.376;8.990;2023-05-10T05:31:59;11.20;;;8.20;;
6973;SDS011;3527;52.376;8.990;2023-05-10T05:34:26;8.33;;;6.20;;
6973;SDS011;3527;52.376;8.990;2023-05-10T05:36:53;6.47;;;5.57;;
6973;SDS011;3527;52.376;8.990;2023-05-10T05:39:20;6.63;;;5.17;;
6973;SDS011;3527;52.376;8.990;2023-05-10T05:41:47;5.90;;;5.27;;
6973;SDS011;3527;52.376;8.990;2023-05-10T05:44:13;6.43;;;5.40;;
6973;SDS011;3527;52.376;8.990;2023-05-10T05:46:40;5.97;;;4.70;;
6973;SDS011;3527;52.376;8.990;2023-05-10T05:49:06;5.70;;;4.47;;
6973;SDS011;3527;52.376;8.990;2023-05-10T05:51:33;4.47;;;3.97;;
6973;SDS011;3527;52.376;8.990;2023-05-10T05:54:01;5.27;;;3.70;;
6973;SDS011;3527;52.376;8.990;2023-05-10T05:56:28;4.50;;;3.60;;
6973;SDS011;3527;52.376;8.990;2023-05-10T05:58:54;6.77;;;3.63;;
6973;SDS011;3527;52.376;8.990;2023-05-10T06:01:21;4.33;;;3.17;;
6973;SDS011;3527;52.376;8.990;2023-05-10T06:03:48;4.37;;;2.93;;
6973;SDS011;3527;52.376;8.990;2023-05-10T06:06:17;3.50;;;2.83;;
6973;SDS011;3527;52.376;8.990;2023-05-10T06:08:44;3.10;;;2.80;;
6973;SDS011;3527;52.376;8.990;2023-05-10T06:11:11;3.97;;;3.17;;
6973;SDS011;3527;52.376;8.990;2023-05-10T06:13:39;3.70;;;3.07;;
6973;SDS011;3527;52.376;8.990;2023-05-10T06:16:06;3.60;;;2.83;;
6973;SDS011;3527;52.376;8.990;2023-05-10T06:18:33;3.83;;;2.80;;
6973;SDS011;3527;52.376;8.990;2023-05-10T06:21:00;3.37;;;2.80;;
6973;SDS011;3527;52.376;8.990;2023-05-10T06:23:30;4.40;;;3.13;;
6973;SDS011;3527;52.376;8.990;2023-05-10T06:25:57;4.33;;;3.50;;
6973;SDS011;3527;52.376;8.990;2023-05-10T06:28:24;3.73;;;3.00;;
6973;SDS011;3527;52.376;8.990;2023-05-10T06:30:52;5.87;;;3.57;;
6973;SDS011;3527;52.376;8.990;2023-05-10T06:33:19;3.90;;;3.17;;
6973;SDS011;3527;52.376;8.990;2023-05-10T06:35:45;4.43;;;3.43;;
6973;SDS011;3527;52.376;8.990;2023-05-10T06:38:12;6.63;;;4.37;;
6973;SDS011;3527;52.376;8.990;2023-05-10T06:40:42;7.07;;;4.27;;
6973;SDS011;3527;52.376;8.990;2023-05-10T06:43:08;5.53;;;3.97;;
6973;SDS011;3527;52.376;8.990;2023-05-10T06:45:35;5.77;;;4.40;;
6973;SDS011;3527;52.376;8.990;2023-05-10T06:48:02;6.53;;;4.50;;
6973;SDS011;3527;52.376;8.990;2023-05-10T06:50:29;4.90;;;4.27;;
6973;SDS011;3527;52.376;8.990;2023-05-10T06:52:55;6.93;;;5.00;;
6973;SDS011;3527;52.376;8.990;2023-05-10T06:55:22;6.33;;;4.63;;
6973;SDS011;3527;52.376;8.990;2023-05-10T06:57:49;8.03;;;4.87;;
6973;SDS011;3527;52.376;8.990;2023-05-10T07:00:17;5.13;;;4.20;;
6973;SDS011;3527;52.376;8.990;2023-05-10T07:02:47;9.17;;;4.97;;
6973;SDS011;3527;52.376;8.990;2023-05-10T07:05:13;5.80;;;4.67;;
6973;SDS011;3527;52.376;8.990;2023-05-10T07:07:41;5.20;;;4.57;;
6973;SDS011;3527;52.376;8.990;2023-05-10T07:10:10;5.80;;;4.57;;
6973;SDS011;3527;52.376;8.990;2023-05-10T07:12:36;6.30;;;3.93;;
6973;SDS011;3527;52.376;8.990;2023-05-10T07:15:04;5.10;;;4.40;;
6973;SDS011;3527;52.376;8.990;2023-05-10T07:17:31;5.90;;;4.70;;
6973;SDS011;3527;52.376;8.990;2023-05-10T07:19:59;4.93;;;4.33;;
6973;SDS011;3527;52.376;8.990;2023-05-10T07:22:26;5.30;;;4.47;;
6973;SDS011;3527;52.376;8.990;2023-05-10T07:24:53;7.90;;;4.77;;
6973;SDS011;3527;52.376;8.990;2023-05-10T07:27:19;6.77;;;4.97;;
6973;SDS011;3527;52.376;8.990;2023-05-10T07:29:47;7.37;;;5.37;;
6973;SDS011;3527;52.376;8.990;2023-05-10T07:32:14;6.67;;;5.30;;
6973;SDS011;3527;52.376;8.990;2023-05-10T07:34:41;5.57;;;4.87;;
6973;SDS011;3527;52.376;8.990;2023-05-10T07:37:08;6.10;;;4.73;;
6973;SDS011;3527;52.376;8.990;2023-05-10T07:39:34;6.00;;;4.40;;
6973;SDS011;3527;52.376;8.990;2023-05-10T07:42:01;5.67;;;4.43;;
6973;SDS011;3527;52.376;8.990;2023-05-10T07:44:29;6.37;;;4.97;;
6973;SDS011;3527;52.376;8.990;2023-05-10T07:46:55;6.37;;;4.83;;
6973;SDS011;3527;52.376;8.990;2023-05-10T07:49:22;6.27;;;4.70;;
6973;SDS011;3527;52.376;8.990;2023-05-10T07:51:50;6.33;;;4.80;;
6973;SDS011;3527;52.376;8.990;2023-05-10T07:54:17;6.20;;;5.23;;
6973;SDS011;3527;52.376;8.990;2023-05-10T07:56:45;6.97;;;5.30;;
6973;SDS011;3527;52.376;8.990;2023-05-10T07:59:17;5.63;;;4.73;;
6973;SDS011;3527;52.376;8.990;2023-05-10T08:01:44;5.70;;;4.93;;
6973;SDS011;3527;52.376;8.990;2023-05-10T08:04:11;6.97;;;5.60;;
6973;SDS011;3527;52.376;8.990;2023-05-10T08:06:38;6.47;;;5.07;;
6973;SDS011;3527;52.376;8.990;2023-05-10T08:09:06;5.83;;;5.20;;
6973;SDS011;3527;52.376;8.990;2023-05-10T08:11:34;8.80;;;5.13;;
6973;SDS011;3527;52.376;8.990;2023-05-10T08:14:01;5.87;;;5.27;;
6973;SDS011;3527;52.376;8.990;2023-05-10T08:16:29;5.97;;;5.20;;
6973;SDS011;3527;52.376;8.990;2023-05-10T08:18:57;6.17;;;4.80;;
6973;SDS011;3527;52.376;8.990;2023-05-10T08:21:24;5.87;;;5.07;;
6973;SDS011;3527;52.376;8.990;2023-05-10T08:23:51;6.33;;;4.63;;
6973;SDS011;3527;52.376;8.990;2023-05-10T08:26:19;5.90;;;4.70;;
6973;SDS011;3527;52.376;8.990;2023-05-10T08:28:48;8.17;;;5.53;;
6973;SDS011;3527;52.376;8.990;2023-05-10T08:31:15;6.33;;;5.03;;
6973;SDS011;3527;52.376;8.990;2023-05-10T08:33:42;6.83;;;5.17;;
6973;SDS011;3527;52.376;8.990;2023-05-10T08:36:10;5.23;;;4.73;;
6973;SDS011;3527;52.376;8.990;2023-05-10T08:38:37;7.50;;;4.87;;
6973;SDS011;3527;52.376;8.990;2023-05-10T08:41:04;5.23;;;4.40;;
6973;SDS011;3527;52.376;8.990;2023-05-10T08:43:31;6.53;;;4.60;;
6973;SDS011;3527;52.376;8.990;2023-05-10T08:46:00;6.13;;;4.80;;
6973;SDS011;3527;52.376;8.990;2023-05-10T08:48:27;5.97;;;4.83;;
6973;SDS011;3527;52.376;8.990;2023-05-10T08:50:55;6.57;;;4.37;;
6973;SDS011;3527;52.376;8.990;2023-05-10T08:53:24;6.90;;;4.50;;
6973;SDS011;3527;52.376;8.990;2023-05-10T08:55:52;5.17;;;4.23;;
6973;SDS011;3527;52.376;8.990;2023-05-10T08:58:19;7.00;;;4.47;;
6973;SDS011;3527;52.376;8.990;2023-05-10T09:00:46;6.53;;;4.50;;
6973;SDS011;3527;52.376;8.990;2023-05-10T09:03:13;5.83;;;3.77;;
6973;SDS011;3527;52.376;8.990;2023-05-10T09:05:40;5.43;;;4.63;;
6973;SDS011;3527;52.376;8.990;2023-05-10T09:08:08;5.73;;;4.20;;
6973;SDS011;3527;52.376;8.990;2023-05-10T09:10:35;7.80;;;4.77;;
6973;SDS011;3527;52.376;8.990;2023-05-10T09:13:02;5.73;;;4.70;;
6973;SDS011;3527;52.376;8.990;2023-05-10T09:15:29;9.37;;;5.07;;
6973;SDS011;3527;52.376;8.990;2023-05-10T09:17:55;9.93;;;5.17;;
6973;SDS011;3527;52.376;8.990;2023-05-10T09:20:23;7.20;;;5.27;;
6973;SDS011;3527;52.376;8.990;2023-05-10T09:22:50;8.93;;;5.00;;
6973;SDS011;3527;52.376;8.990;2023-05-10T09:25:17;12.17;;;6.23;;
6973;SDS011;3527;52.376;8.990;2023-05-10T09:27:45;7.60;;;5.70;;
6973;SDS011;3527;52.376;8.990;2023-05-10T09:30:16;7.93;;;5.60;;
6973;SDS011;3527;52.376;8.990;2023-05-10T09:32:43;8.80;;;5.70;;
6973;SDS011;3527;52.376;8.990;2023-05-10T09:35:11;11.03;;;6.20;;
6973;SDS011;3527;52.376;8.990;2023-05-10T09:37:39;8.43;;;5.97;;
6973;SDS011;3527;52.376;8.990;2023-05-10T09:40:08;9.90;;;6.67;;
6973;SDS011;3527;52.376;8.990;2023-05-10T09:42:37;11.57;;;6.60;;
6973;SDS011;3527;52.376;8.990;2023-05-10T09:45:04;7.60;;;6.03;;
6973;SDS011;3527;52.376;8.990;2023-05-10T09:47:31;7.80;;;5.97;;
6973;SDS011;3527;52.376;8.990;2023-05-10T09:49:58;9.90;;;6.10;;
6973;SDS011;3527;52.376;8.990;2023-05-10T09:55:21;11.40;;;6.90;;
6973;SDS011;3527;52.376;8.990;2023-05-10T09:57:48;9.63;;;5.80;;
6973;SDS011;3527;52.376;8.990;2023-05-10T10:00:19;7.57;;;5.93;;
6973;SDS011;3527;52.376;8.990;2023-05-10T10:02:47;8.10;;;5.83;;
6973;SDS011;3527;52.376;8.990;2023-05-10T10:05:14;7.87;;;5.73;;
6973;SDS011;3527;52.376;8.990;2023-05-10T10:07:41;7.87;;;5.70;;
6973;SDS011;3527;52.376;8.990;2023-05-10T10:10:08;9.30;;;6.00;;
6973;SDS011;3527;52.376;8.990;2023-05-10T10:12:39;9.57;;;6.50;;
6973;SDS011;3527;52.376;8.990;2023-05-10T10:15:06;9.03;;;6.27;;
6973;SDS011;3527;52.376;8.990;2023-05-10T10:17:33;10.93;;;6.87;;
6973;SDS011;3527;52.376;8.990;2023-05-10T10:20:02;7.70;;;5.87;;
6973;SDS011;3527;52.376;8.990;2023-05-10T10:22:29;7.07;;;5.90;;
6973;SDS011;3527;52.376;8.990;2023-05-10T10:24:55;10.27;;;6.17;;
6973;SDS011;3527;52.376;8.990;2023-05-10T10:29:58;11.73;;;6.33;;
6973;SDS011;3527;52.376;8.990;2023-05-10T10:32:27;8.60;;;6.60;;
6973;SDS011;3527;52.376;8.990;2023-05-10T10:34:56;13.30;;;6.70;;
6973;SDS011;3527;52.376;8.990;2023-05-10T10:37:23;10.87;;;6.87;;
6973;SDS011;3527;52.376;8.990;2023-05-10T10:39:50;11.03;;;7.00;;
6973;SDS011;3527;52.376;8.990;2023-05-10T10:42:43;8.60;;;6.33;;
6973;SDS011;3527;52.376;8.990;2023-05-10T10:45:13;8.73;;;6.93;;
6973;SDS011;3527;52.376;8.990;2023-05-10T10:47:40;11.30;;;6.60;;
6973;SDS011;3527;52.376;8.990;2023-05-10T10:50:09;10.50;;;7.07;;
6973;SDS011;3527;52.376;8.990;2023-05-10T10:57:50;11.10;;;7.27;;
6973;SDS011;3527;52.376;8.990;2023-05-10T11:02:48;8.30;;;6.50;;
6973;SDS011;3527;52.376;8.990;2023-05-10T11:08:12;11.87;;;6.30;;
6973;SDS011;3527;52.376;8.990;2023-05-10T11:10:39;8.93;;;6.77;;
6973;SDS011;3527;52.376;8.990;2023-05-10T11:13:07;8.87;;;6.53;;
6973;SDS011;3527;52.376;8.990;2023-05-10T11:15:38;8.97;;;7.00;;
6973;SDS011;3527;52.376;8.990;2023-05-10T11:18:20;11.83;;;7.47;;
6973;SDS011;3527;52.376;8.990;2023-05-10T11:20:55;9.27;;;7.20;;
6973;SDS011;3527;52.376;8.990;2023-05-10T11:23:21;11.30;;;7.53;;
6973;SDS011;3527;52.376;8.990;2023-05-10T11:25:48;8.30;;;6.23;;
6973;SDS011;3527;52.376;8.990;2023-05-10T11:28:16;9.07;;;5.83;;
6973;SDS011;3527;52.376;8.990;2023-05-10T11:30:43;7.93;;;6.00;;
6973;SDS011;3527;52.376;8.990;2023-05-10T11:33:14;8.63;;;6.40;;
6973;SDS011;3527;52.376;8.990;2023-05-10T11:35:41;9.07;;;6.27;;
6973;SDS011;3527;52.376;8.990;2023-05-10T11:38:12;9.73;;;6.23;;
6973;SDS011;3527;52.376;8.990;2023-05-10T11:40:41;10.33;;;6.77;;
6973;SDS011;3527;52.376;8.990;2023-05-10T11:43:08;8.33;;;5.83;;
6973;SDS011;3527;52.376;8.990;2023-05-10T11:45:36;9.20;;;6.27;;
6973;SDS011;3527;52.376;8.990;2023-05-10T11:48:03;8.73;;;5.50;;
6973;SDS011;3527;52.376;8.990;2023-05-10T11:50:30;7.80;;;5.87;;
6973;SDS011;3527;52.376;8.990;2023-05-10T11:52:56;10.33;;;6.40;;
6973;SDS011;3527;52.376;8.990;2023-05-10T11:55:23;8.83;;;5.93;;
6973;SDS011;3527;52.376;8.990;2023-05-10T11:57:53;10.70;;;7.20;;
6973;SDS011;3527;52.376;8.990;2023-05-10T12:00:20;11.23;;;7.77;;
6973;SDS011;3527;52.376;8.990;2023-05-10T12:02:47;10.47;;;7.43;;
6973;SDS011;3527;52.376;8.990;2023-05-10T12:05:14;12.27;;;7.60;;
6973;SDS011;3527;52.376;8.990;2023-05-10T12:07:41;9.93;;;6.70;;
6973;SDS011;3527;52.376;8.990;2023-05-10T12:10:09;8.00;;;5.97;;
6973;SDS011;3527;52.376;8.990;2023-05-10T12:12:39;8.80;;;5.93;;
6973;SDS011;3527;52.376;8.990;2023-05-10T12:15:26;7.83;;;5.30;;
6973;SDS011;3527;52.376;8.990;2023-05-10T12:17:55;8.50;;;5.13;;
6973;SDS011;3527;52.376;8.990;2023-05-10T12:20:23;8.00;;;5.37;;
6973;SDS011;3527;52.376;8.990;2023-05-10T12:25:17;6.60;;;5.07;;
6973;SDS011;3527;52.376;8.990;2023-05-10T12:27:51;9.10;;;5.90;;
6973;SDS011;3527;52.376;8.990;2023-05-10T12:30:21;8.57;;;6.57;;
6973;SDS011;3527;52.376;8.990;2023-05-10T12:32:48;9.70;;;7.30;;
6973;SDS011;3527;52.376;8.990;2023-05-10T12:35:15;10.10;;;6.93;;
6973;SDS011;3527;52.376;8.990;2023-05-10T12:37:42;11.27;;;7.23;;
6973;SDS011;3527;52.376;8.990;2023-05-10T12:40:09;9.40;;;7.40;;
6973;SDS011;3527;52.376;8.990;2023-05-10T12:42:37;15.03;;;7.77;;
6973;SDS011;3527;52.376;8.990;2023-05-10T12:45:04;10.60;;;7.47;;
6973;SDS011;3527;52.376;8.990;2023-05-10T12:47:32;10.60;;;7.13;;
6973;SDS011;3527;52.376;8.990;2023-05-10T12:49:59;9.37;;;7.30;;
6973;SDS011;3527;52.376;8.990;2023-05-10T12:52:26;10.67;;;7.20;;
6973;SDS011;3527;52.376;8.990;2023-05-10T12:54:53;9.83;;;6.70;;
6973;SDS011;3527;52.376;8.990;2023-05-10T12:57:20;10.90;;;6.10;;
6973;SDS011;3527;52.376;8.990;2023-05-10T12:59:46;10.43;;;5.83;;
6973;SDS011;3527;52.376;8.990;2023-05-10T13:02:13;7.43;;;5.23;;
6973;SDS011;3527;52.376;8.990;2023-05-10T13:04:41;9.67;;;5.60;;
6973;SDS011;3527;52.376;8.990;2023-05-10T13:07:08;6.93;;;4.93;;
6973;SDS011;3527;52.376;8.990;2023-05-10T13:09:34;9.53;;;6.37;;
6973;SDS011;3527;52.376;8.990;2023-05-10T13:12:01;9.47;;;6.97;;
6973;SDS011;3527;52.376;8.990;2023-05-10T13:14:28;11.17;;;8.07;;
6973;SDS011;3527;52.376;8.990;2023-05-10T13:16:55;13.53;;;9.10;;
6973;SDS011;3527;52.376;8.990;2023-05-10T13:19:22;17.17;;;11.20;;
6973;SDS011;3527;52.376;8.990;2023-05-10T13:21:49;17.77;;;12.43;;
6973;SDS011;3527;52.376;8.990;2023-05-10T13:24:15;18.10;;;11.90;;
6973;SDS011;3527;52.376;8.990;2023-05-10T13:26:43;19.47;;;12.57;;
6973;SDS011;3527;52.376;8.990;2023-05-10T13:29:09;17.00;;;12.37;;
6973;SDS011;3527;52.376;8.990;2023-05-10T13:31:37;17.43;;;12.47;;
6973;SDS011;3527;52.376;8.990;2023-05-10T13:34:04;18.83;;;13.03;;
6973;SDS011;3527;52.376;8.990;2023-05-10T13:36:31;21.23;;;13.57;;
6973;SDS011;3527;52.376;8.990;2023-05-10T13:38:57;17.77;;;11.87;;
6973;SDS011;3527;52.376;8.990;2023-05-10T13:41:24;18.80;;;12.70;;
6973;SDS011;3527;52.376;8.990;2023-05-10T13:43:51;18.77;;;12.43;;
6973;SDS011;3527;52.376;8.990;2023-05-10T13:46:18;20.93;;;13.27;;
6973;SDS011;3527;52.376;8.990;2023-05-10T13:48:45;18.40;;;12.83;;
6973;SDS011;3527;52.376;8.990;2023-05-10T13:51:11;18.33;;;12.43;;
6973;SDS011;3527;52.376;8.990;2023-05-10T13:53:39;17.53;;;11.97;;
6973;SDS011;3527;52.376;8.990;2023-05-10T13:56:05;18.57;;;11.60;;
6973;SDS011;3527;52.376;8.990;2023-05-10T13:58:32;16.57;;;11.40;;
6973;SDS011;3527;52.376;8.990;2023-05-10T14:00:59;18.53;;;11.40;;
6973;SDS011;3527;52.376;8.990;2023-05-10T14:03:25;19.37;;;11.57;;
6973;SDS011;3527;52.376;8.990;2023-05-10T14:05:52;16.60;;;10.90;;
6973;SDS011;3527;52.376;8.990;2023-05-10T14:08:19;13.43;;;9.57;;
6973;SDS011;3527;52.376;8.990;2023-05-10T14:10:46;12.97;;;7.97;;
6973;SDS011;3527;52.376;8.990;2023-05-10T14:13:13;10.40;;;7.83;;
6973;SDS011;3527;52.376;8.990;2023-05-10T14:15:39;11.17;;;8.03;;
6973;SDS011;3527;52.376;8.990;2023-05-10T14:18:06;9.37;;;6.73;;
6973;SDS011;3527;52.376;8.990;2023-05-10T14:20:33;9.03;;;6.07;;
6973;SDS011;3527;52.376;8.990;2023-05-10T14:23:00;11.50;;;6.23;;
6973;SDS011;3527;52.376;8.990;2023-05-10T14:25:26;10.80;;;5.77;;
6973;SDS011;3527;52.376;8.990;2023-05-10T14:27:54;9.87;;;6.17;;
6973;SDS011;3527;52.376;8.990;2023-05-10T14:30:21;13.53;;;6.87;;
6973;SDS011;3527;52.376;8.990;2023-05-10T14:32:47;6.80;;;5.47;;
6973;SDS011;3527;52.376;8.990;2023-05-10T14:35:14;8.00;;;5.60;;
6973;SDS011;3527;52.376;8.990;2023-05-10T14:37:44;7.33;;;4.90;;
6973;SDS011;3527;52.376;8.990;2023-05-10T14:40:11;5.63;;;4.23;;
6973;SDS011;3527;52.376;8.990;2023-05-10T14:42:38;7.93;;;4.80;;
6973;SDS011;3527;52.376;8.990;2023-05-10T14:45:05;5.63;;;4.23;;
6973;SDS011;3527;52.376;8.990;2023-05-10T14:47:32;6.50;;;4.70;;
6973;SDS011;3527;52.376;8.990;2023-05-10T14:49:59;11.10;;;4.97;;
6973;SDS011;3527;52.376;8.990;2023-05-10T14:52:26;6.90;;;4.90;;
6973;SDS011;3527;52.376;8.990;2023-05-10T14:54:53;8.73;;;5.17;;
6973;SDS011;3527;52.376;8.990;2023-05-10T14:57:19;7.30;;;5.20;;
6973;SDS011;3527;52.376;8.990;2023-05-10T14:59:46;6.37;;;4.43;;
6973;SDS011;3527;52.376;8.990;2023-05-10T15:02:14;6.27;;;5.03;;
6973;SDS011;3527;52.376;8.990;2023-05-10T15:04:41;6.87;;;4.77;;
6973;SDS011;3527;52.376;8.990;2023-05-10T15:07:08;7.40;;;4.00;;
6973;SDS011;3527;52.376;8.990;2023-05-10T15:09:34;5.27;;;3.67;;
6973;SDS011;3527;52.376;8.990;2023-05-10T15:12:01;7.97;;;3.70;;
6973;SDS011;3527;52.376;8.990;2023-05-10T15:14:28;5.70;;;3.50;;
6973;SDS011;3527;52.376;8.990;2023-05-10T15:16:55;5.23;;;2.97;;
6973;SDS011;3527;52.376;8.990;2023-05-10T15:19:21;7.20;;;3.30;;
6973;SDS011;3527;52.376;8.990;2023-05-10T15:21:48;5.20;;;2.93;;
6973;SDS011;3527;52.376;8.990;2023-05-10T15:24:15;7.20;;;3.03;;
6973;SDS011;3527;52.376;8.990;2023-05-10T15:26:41;15.50;;;4.40;;
6973;SDS011;3527;52.376;8.990;2023-05-10T15:29:09;5.07;;;2.90;;
6973;SDS011;3527;52.376;8.990;2023-05-10T15:31:35;4.30;;;2.97;;
6973;SDS011;3527;52.376;8.990;2023-05-10T15:34:02;6.97;;;3.10;;
6973;SDS011;3527;52.376;8.990;2023-05-10T15:36:31;4.53;;;3.00;;
6973;SDS011;3527;52.376;8.990;2023-05-10T15:38:58;4.27;;;3.07;;
6973;SDS011;3527;52.376;8.990;2023-05-10T15:41:24;6.10;;;3.63;;
6973;SDS011;3527;52.376;8.990;2023-05-10T15:43:53;5.63;;;3.30;;
6973;SDS011;3527;52.376;8.990;2023-05-10T15:46:19;4.73;;;2.77;;